sensor_id;sensor_type;location;lat;lon;timestamp;temperature;humidity
9949;DHT22;5013;51.840;8.276;2023-11-21T00:00:44;6.30;99.90
9949;DHT22;5013;51.840;8.276;2023-11-21T00:03:11;6.30;1.00
9949;DHT22;5013;51.840;8.276;2023-11-21T00:05:40;6.30;1.00
9949;DHT22;5013;51.840;8.276;2023-11-21T00:08:07;6.40;1.00
9949;DHT22;5013;51.840;8.276;2023-11-21T00:10:32;6.40;1.00
9949;DHT22;5013;51.840;8.276;2023-11-21T00:12:58;6.40;1.00
9949;DHT22;5013;51.840;8.276;2023-11-21T00:15:24;6.50;1.00
9949;DHT22;5013;51.840;8.276;2023-11-21T00:17:49;6.50;1.00
9949;DHT22;5013;51.840;8.276;2023-11-21T00:20:15;6.50;1.00
9949;DHT22;5013;51.840;8.276;2023-11-21T00:22:40;6.50;1.00
9949;DHT22;5013;51.840;8.276;2023-11-21T00:25:07;6.50;1.00
9949;DHT22;5013;51.840;8.276;2023-11-21T00:27:35;6.60;12.50
9949;DHT22;5013;51.840;8.276;2023-11-21T00:30:01;6.60;1.00
9949;DHT22;5013;51.840;8.276;2023-11-21T00:32:26;6.60;22.30
9949;DHT22;5013;51.840;8.276;2023-11-21T00:34:52;6.70;75.40
9949;DHT22;5013;51.840;8.276;2023-11-21T00:37:17;6.70;90.20
9949;DHT22;5013;51.840;8.276;2023-11-21T00:39:43;6.80;99.90
9949;DHT22;5013;51.840;8.276;2023-11-21T00:42:09;6.80;99.90
9949;DHT22;5013;51.840;8.276;2023-11-21T00:44:38;6.80;78.40
9949;DHT22;5013;51.840;8.276;2023-11-21T00:47:04;6.70;60.20
9949;DHT22;5013;51.840;8.276;2023-11-21T00:49:29;6.70;99.90
9949;DHT22;5013;51.840;8.276;2023-11-21T00:51:56;6.70;99.90
9949;DHT22;5013;51.840;8.276;2023-11-21T00:54:23;6.70;99.90
9949;DHT22;5013;51.840;8.276;2023-11-21T00:56:49;6.70;99.90
9949;DHT22;5013;51.840;8.276;2023-11-21T00:59:14;6.70;99.90
9949;DHT22;5013;51.840;8.276;2023-11-21T01:01:40;6.70;99.90
9949;DHT22;5013;51.840;8.276;2023-11-21T01:04:05;6.70;99.90
9949;DHT22;5013;51.840;8.276;2023-11-21T01:06:32;6.70;99.90
9949;DHT22;5013;51.840;8.276;2023-11-21T01:08:58;6.80;99.90
9949;DHT22;5013;51.840;8.276;2023-11-21T01:11:23;6.80;99.90
9949;DHT22;5013;51.840;8.276;2023-11-21T01:13:49;6.60;99.90
9949;DHT22;5013;51.840;8.276;2023-11-21T01:16:14;6.70;99.90
9949;DHT22;5013;51.840;8.276;2023-11-21T01:18:40;6.80;99.90
9949;DHT22;5013;51.840;8.276;2023-11-21T01:21:06;6.80;99.90
9949;DHT22;5013;51.840;8.276;2023-11-21T01:23:33;6.80;99.90
9949;DHT22;5013;51.840;8.276;2023-11-21T01:25:58;6.80;99.90
9949;DHT22;5013;51.840;8.276;2023-11-21T01:28:24;6.90;99.90
9949;DHT22;5013;51.840;8.276;2023-11-21T01:30:49;6.90;99.90
9949;DHT22;5013;51.840;8.276;2023-11-21T01:33:15;6.90;99.90
9949;DHT22;5013;51.840;8.276;2023-11-21T01:35:41;6.90;99.90
9949;DHT22;5013;51.840;8.276;2023-11-21T01:38:07;6.90;99.90
9949;DHT22;5013;51.840;8.276;2023-11-21T01:40:34;6.80;99.90
9949;DHT22;5013;51.840;8.276;2023-11-21T01:43:00;6.80;99.90
9949;DHT22;5013;51.840;8.276;2023-11-21T01:45:28;6.90;99.90
9949;DHT22;5013;51.840;8.276;2023-11-21T01:47:56;6.80;99.90
9949;DHT22;5013;51.840;8.276;2023-11-21T01:50:22;6.80;99.90
9949;DHT22;5013;51.840;8.276;2023-11-21T01:52:48;6.70;99.90
9949;DHT22;5013;51.840;8.276;2023-11-21T01:55:16;6.80;99.90
9949;DHT22;5013;51.840;8.276;2023-11-21T01:57:46;6.80;99.90
9949;DHT22;5013;51.840;8.276;2023-11-21T02:00:12;6.70;99.90
9949;DHT22;5013;51.840;8.276;2023-11-21T02:02:48;6.70;99.90
9949;DHT22;5013;51.840;8.276;2023-11-21T02:05:18;6.70;99.90
9949;DHT22;5013;51.840;8.276;2023-11-21T02:07:45;6.70;99.90
9949;DHT22;5013;51.840;8.276;2023-11-21T02:10:13;6.70;99.90
9949;DHT22;5013;51.840;8.276;2023-11-21T02:12:44;6.70;99.90
9949;DHT22;5013;51.840;8.276;2023-11-21T02:15:12;6.70;99.90
9949;DHT22;5013;51.840;8.276;2023-11-21T02:17:42;6.70;99.90
9949;DHT22;5013;51.840;8.276;2023-11-21T02:20:12;6.70;99.90
9949;DHT22;5013;51.840;8.276;2023-11-21T02:22:41;6.70;99.90
9949;DHT22;5013;51.840;8.276;2023-11-21T02:25:08;6.70;99.90
9949;DHT22;5013;51.840;8.276;2023-11-21T02:27:34;6.70;99.90
9949;DHT22;5013;51.840;8.276;2023-11-21T02:29:59;6.80;99.90
9949;DHT22;5013;51.840;8.276;2023-11-21T02:32:26;6.80;99.90
9949;DHT22;5013;51.840;8.276;2023-11-21T02:34:52;6.80;99.90
9949;DHT22;5013;51.840;8.276;2023-11-21T02:37:17;6.80;99.90
9949;DHT22;5013;51.840;8.276;2023-11-21T02:39:43;6.90;99.90
9949;DHT22;5013;51.840;8.276;2023-11-21T02:42:08;7.00;99.90
9949;DHT22;5013;51.840;8.276;2023-11-21T02:44:34;7.00;99.90
9949;DHT22;5013;51.840;8.276;2023-11-21T02:47:00;7.00;99.90
9949;DHT22;5013;51.840;8.276;2023-11-21T02:49:25;7.00;99.90
9949;DHT22;5013;51.840;8.276;2023-11-21T02:51:54;7.00;99.90
9949;DHT22;5013;51.840;8.276;2023-11-21T02:54:20;7.10;99.90
9949;DHT22;5013;51.840;8.276;2023-11-21T02:56:47;7.10;99.90
9949;DHT22;5013;51.840;8.276;2023-11-21T02:59:15;7.10;99.90
9949;DHT22;5013;51.840;8.276;2023-11-21T03:01:41;7.10;99.90
9949;DHT22;5013;51.840;8.276;2023-11-21T03:04:06;7.10;99.90
9949;DHT22;5013;51.840;8.276;2023-11-21T03:06:32;7.10;99.90
9949;DHT22;5013;51.840;8.276;2023-11-21T03:08:57;7.10;99.90
9949;DHT22;5013;51.840;8.276;2023-11-21T03:11:23;7.10;99.90
9949;DHT22;5013;51.840;8.276;2023-11-21T03:13:48;7.10;99.90
9949;DHT22;5013;51.840;8.276;2023-11-21T03:16:16;7.20;99.90
9949;DHT22;5013;51.840;8.276;2023-11-21T03:18:41;7.30;99.90
9949;DHT22;5013;51.840;8.276;2023-11-21T03:21:07;7.20;99.90
9949;DHT22;5013;51.840;8.276;2023-11-21T03:23:36;7.30;99.90
9949;DHT22;5013;51.840;8.276;2023-11-21T03:26:02;7.40;99.90
9949;DHT22;5013;51.840;8.276;2023-11-21T03:28:28;7.30;99.90
9949;DHT22;5013;51.840;8.276;2023-11-21T03:30:55;7.40;99.90
9949;DHT22;5013;51.840;8.276;2023-11-21T03:33:21;7.40;99.90
9949;DHT22;5013;51.840;8.276;2023-11-21T03:35:48;7.40;99.90
9949;DHT22;5013;51.840;8.276;2023-11-21T03:38:14;7.30;99.90
9949;DHT22;5013;51.840;8.276;2023-11-21T03:40:41;7.30;99.90
9949;DHT22;5013;51.840;8.276;2023-11-21T03:43:07;7.30;99.90
9949;DHT22;5013;51.840;8.276;2023-11-21T03:45:32;7.40;99.90
9949;DHT22;5013;51.840;8.276;2023-11-21T03:47:58;7.40;99.90
9949;DHT22;5013;51.840;8.276;2023-11-21T03:50:23;7.40;99.90
9949;DHT22;5013;51.840;8.276;2023-11-21T03:52:49;7.40;99.90
9949;DHT22;5013;51.840;8.276;2023-11-21T03:55:14;7.40;99.90
9949;DHT22;5013;51.840;8.276;2023-11-21T03:57:40;7.40;99.90
9949;DHT22;5013;51.840;8.276;2023-11-21T04:00:06;7.40;99.90
9949;DHT22;5013;51.840;8.276;2023-11-21T04:02:34;7.40;99.90
9949;DHT22;5013;51.840;8.276;2023-11-21T04:04:59;7.40;99.90
9949;DHT22;5013;51.840;8.276;2023-11-21T04:07:25;7.40;99.90
9949;DHT22;5013;51.840;8.276;2023-11-21T04:09:50;7.50;99.90
9949;DHT22;5013;51.840;8.276;2023-11-21T04:12:16;7.50;99.90
9949;DHT22;5013;51.840;8.276;2023-11-21T04:14:42;7.50;99.90
9949;DHT22;5013;51.840;8.276;2023-11-21T04:17:07;7.50;99.90
9949;DHT22;5013;51.840;8.276;2023-11-21T04:19:33;7.50;99.90
9949;DHT22;5013;51.840;8.276;2023-11-21T04:21:58;7.50;99.90
9949;DHT22;5013;51.840;8.276;2023-11-21T04:24:24;7.50;99.90
9949;DHT22;5013;51.840;8.276;2023-11-21T04:26:49;7.50;99.90
9949;DHT22;5013;51.840;8.276;2023-11-21T04:29:15;7.50;99.90
9949;DHT22;5013;51.840;8.276;2023-11-21T04:31:40;7.60;99.90
9949;DHT22;5013;51.840;8.276;2023-11-21T04:34:06;7.50;99.90
9949;DHT22;5013;51.840;8.276;2023-11-21T04:36:33;7.50;99.90
9949;DHT22;5013;51.840;8.276;2023-11-21T04:39:00;7.50;99.90
9949;DHT22;5013;51.840;8.276;2023-11-21T04:41:25;7.50;99.90
9949;DHT22;5013;51.840;8.276;2023-11-21T04:43:51;7.40;99.90
9949;DHT22;5013;51.840;8.276;2023-11-21T04:46:17;7.40;99.90
9949;DHT22;5013;51.840;8.276;2023-11-21T04:48:42;7.40;99.90
9949;DHT22;5013;51.840;8.276;2023-11-21T04:51:08;7.40;99.90
9949;DHT22;5013;51.840;8.276;2023-11-21T04:53:34;7.40;99.90
9949;DHT22;5013;51.840;8.276;2023-11-21T04:56:00;7.30;99.90
9949;DHT22;5013;51.840;8.276;2023-11-21T04:58:26;7.30;99.90
9949;DHT22;5013;51.840;8.276;2023-11-21T05:00:51;7.30;99.90
9949;DHT22;5013;51.840;8.276;2023-11-21T05:03:17;7.30;99.90
9949;DHT22;5013;51.840;8.276;2023-11-21T05:05:42;7.20;99.90
9949;DHT22;5013;51.840;8.276;2023-11-21T05:08:08;7.20;99.90
9949;DHT22;5013;51.840;8.276;2023-11-21T05:10:33;7.20;99.90
9949;DHT22;5013;51.840;8.276;2023-11-21T05:12:59;7.20;99.90
9949;DHT22;5013;51.840;8.276;2023-11-21T05:15:25;7.20;99.90
9949;DHT22;5013;51.840;8.276;2023-11-21T05:17:52;7.20;99.90
9949;DHT22;5013;51.840;8.276;2023-11-21T05:20:19;7.20;99.90
9949;DHT22;5013;51.840;8.276;2023-11-21T05:22:49;7.10;99.90
9949;DHT22;5013;51.840;8.276;2023-11-21T05:25:15;7.10;99.90
9949;DHT22;5013;51.840;8.276;2023-11-21T05:27:42;7.10;99.90
9949;DHT22;5013;51.840;8.276;2023-11-21T05:30:08;7.10;99.90
9949;DHT22;5013;51.840;8.276;2023-11-21T05:32:38;7.10;99.90
9949;DHT22;5013;51.840;8.276;2023-11-21T05:35:04;7.10;99.90
9949;DHT22;5013;51.840;8.276;2023-11-21T05:37:35;7.10;99.90
9949;DHT22;5013;51.840;8.276;2023-11-21T05:40:01;7.10;99.90
9949;DHT22;5013;51.840;8.276;2023-11-21T05:42:34;7.10;99.90
9949;DHT22;5013;51.840;8.276;2023-11-21T05:45:00;7.10;99.90
9949;DHT22;5013;51.840;8.276;2023-11-21T05:47:43;7.10;99.90
9949;DHT22;5013;51.840;8.276;2023-11-21T05:50:12;7.20;99.90
9949;DHT22;5013;51.840;8.276;2023-11-21T05:52:40;7.10;99.90
9949;DHT22;5013;51.840;8.276;2023-11-21T05:55:07;7.10;99.90
9949;DHT22;5013;51.840;8.276;2023-11-21T05:57:33;7.10;99.90
9949;DHT22;5013;51.840;8.276;2023-11-21T06:00:02;7.20;99.90
9949;DHT22;5013;51.840;8.276;2023-11-21T06:02:28;7.10;99.90
9949;DHT22;5013;51.840;8.276;2023-11-21T06:04:54;7.10;99.90
9949;DHT22;5013;51.840;8.276;2023-11-21T06:07:19;7.10;99.90
9949;DHT22;5013;51.840;8.276;2023-11-21T06:09:46;7.20;99.90
9949;DHT22;5013;51.840;8.276;2023-11-21T06:12:14;7.20;99.90
9949;DHT22;5013;51.840;8.276;2023-11-21T06:14:41;7.20;99.90
9949;DHT22;5013;51.840;8.276;2023-11-21T06:17:06;7.20;99.90
9949;DHT22;5013;51.840;8.276;2023-11-21T06:19:32;7.20;99.90
9949;DHT22;5013;51.840;8.276;2023-11-21T06:21:57;7.30;99.90
9949;DHT22;5013;51.840;8.276;2023-11-21T06:24:23;7.30;99.90
9949;DHT22;5013;51.840;8.276;2023-11-21T06:26:48;7.30;99.90
9949;DHT22;5013;51.840;8.276;2023-11-21T06:29:14;7.30;99.90
9949;DHT22;5013;51.840;8.276;2023-11-21T06:31:40;7.30;99.90
9949;DHT22;5013;51.840;8.276;2023-11-21T06:34:06;7.30;99.90
9949;DHT22;5013;51.840;8.276;2023-11-21T06:36:31;7.30;99.90
9949;DHT22;5013;51.840;8.276;2023-11-21T06:38:57;7.30;99.90
9949;DHT22;5013;51.840;8.276;2023-11-21T06:41:22;7.30;99.90
9949;DHT22;5013;51.840;8.276;2023-11-21T06:43:49;7.30;99.90
9949;DHT22;5013;51.840;8.276;2023-11-21T06:46:14;7.40;99.90
9949;DHT22;5013;51.840;8.276;2023-11-21T06:48:42;7.40;99.90
9949;DHT22;5013;51.840;8.276;2023-11-21T06:51:07;7.40;99.90
9949;DHT22;5013;51.840;8.276;2023-11-21T06:53:33;7.40;99.90
9949;DHT22;5013;51.840;8.276;2023-11-21T06:55:59;7.40;99.90
9949;DHT22;5013;51.840;8.276;2023-11-21T06:58:25;7.40;99.90
9949;DHT22;5013;51.840;8.276;2023-11-21T07:00:50;7.40;99.90
9949;DHT22;5013;51.840;8.276;2023-11-21T07:03:17;7.40;99.90
9949;DHT22;5013;51.840;8.276;2023-11-21T07:05:45;7.30;99.90
9949;DHT22;5013;51.840;8.276;2023-11-21T07:08:10;7.40;99.90
9949;DHT22;5013;51.840;8.276;2023-11-21T07:10:36;7.50;99.90
9949;DHT22;5013;51.840;8.276;2023-11-21T07:13:02;7.50;99.90
9949;DHT22;5013;51.840;8.276;2023-11-21T07:15:27;7.50;99.90
9949;DHT22;5013;51.840;8.276;2023-11-21T07:17:53;7.60;99.90
9949;DHT22;5013;51.840;8.276;2023-11-21T07:20:19;7.60;99.90
9949;DHT22;5013;51.840;8.276;2023-11-21T07:22:45;7.70;99.90
9949;DHT22;5013;51.840;8.276;2023-11-21T07:25:11;7.70;99.90
9949;DHT22;5013;51.840;8.276;2023-11-21T07:27:37;7.70;99.90
9949;DHT22;5013;51.840;8.276;2023-11-21T07:30:03;7.80;99.90
9949;DHT22;5013;51.840;8.276;2023-11-21T07:32:31;7.80;99.90
9949;DHT22;5013;51.840;8.276;2023-11-21T07:34:57;7.80;99.90
9949;DHT22;5013;51.840;8.276;2023-11-21T07:37:24;7.80;99.90
9949;DHT22;5013;51.840;8.276;2023-11-21T07:39:51;7.90;99.90
9949;DHT22;5013;51.840;8.276;2023-11-21T07:42:24;7.90;99.90
9949;DHT22;5013;51.840;8.276;2023-11-21T07:44:55;7.90;99.90
9949;DHT22;5013;51.840;8.276;2023-11-21T07:47:21;7.80;99.90
9949;DHT22;5013;51.840;8.276;2023-11-21T07:49:47;7.90;99.90
9949;DHT22;5013;51.840;8.276;2023-11-21T07:52:13;7.90;99.90
9949;DHT22;5013;51.840;8.276;2023-11-21T07:54:41;7.90;99.90
9949;DHT22;5013;51.840;8.276;2023-11-21T07:57:07;7.90;99.90
9949;DHT22;5013;51.840;8.276;2023-11-21T07:59:33;7.90;99.90
9949;DHT22;5013;51.840;8.276;2023-11-21T08:01:58;7.90;99.90
9949;DHT22;5013;51.840;8.276;2023-11-21T08:04:24;7.90;99.90
9949;DHT22;5013;51.840;8.276;2023-11-21T08:06:49;7.90;99.90
9949;DHT22;5013;51.840;8.276;2023-11-21T08:09:16;8.00;99.90
9949;DHT22;5013;51.840;8.276;2023-11-21T08:11:43;8.00;99.90
9949;DHT22;5013;51.840;8.276;2023-11-21T08:14:08;8.00;99.90
9949;DHT22;5013;51.840;8.276;2023-11-21T08:16:34;8.00;99.90
9949;DHT22;5013;51.840;8.276;2023-11-21T08:18:59;8.00;99.90
9949;DHT22;5013;51.840;8.276;2023-11-21T08:21:25;8.00;99.90
9949;DHT22;5013;51.840;8.276;2023-11-21T08:23:52;8.00;99.90
9949;DHT22;5013;51.840;8.276;2023-11-21T08:26:20;8.00;99.90
9949;DHT22;5013;51.840;8.276;2023-11-21T08:28:45;8.00;99.90
9949;DHT22;5013;51.840;8.276;2023-11-21T08:31:12;8.00;99.90
9949;DHT22;5013;51.840;8.276;2023-11-21T08:33:38;8.00;99.90
9949;DHT22;5013;51.840;8.276;2023-11-21T08:36:07;8.00;99.90
9949;DHT22;5013;51.840;8.276;2023-11-21T08:38:34;8.00;99.90
9949;DHT22;5013;51.840;8.276;2023-11-21T08:41:06;8.10;99.90
9949;DHT22;5013;51.840;8.276;2023-11-21T08:43:35;8.00;99.90
9949;DHT22;5013;51.840;8.276;2023-11-21T08:46:01;8.00;99.90
9949;DHT22;5013;51.840;8.276;2023-11-21T08:48:26;8.00;99.90
9949;DHT22;5013;51.840;8.276;2023-11-21T08:50:53;8.00;99.90
9949;DHT22;5013;51.840;8.276;2023-11-21T08:53:19;8.10;99.90
9949;DHT22;5013;51.840;8.276;2023-11-21T08:55:45;8.10;99.90
9949;DHT22;5013;51.840;8.276;2023-11-21T08:58:10;8.20;99.90
9949;DHT22;5013;51.840;8.276;2023-11-21T09:00:38;8.20;99.90
9949;DHT22;5013;51.840;8.276;2023-11-21T09:03:04;8.20;99.90
9949;DHT22;5013;51.840;8.276;2023-11-21T09:05:37;8.20;99.90
9949;DHT22;5013;51.840;8.276;2023-11-21T09:08:02;8.20;99.90
9949;DHT22;5013;51.840;8.276;2023-11-21T09:10:28;8.20;99.90
9949;DHT22;5013;51.840;8.276;2023-11-21T09:12:53;8.20;99.90
9949;DHT22;5013;51.840;8.276;2023-11-21T09:15:19;8.30;99.90
9949;DHT22;5013;51.840;8.276;2023-11-21T09:17:46;8.20;99.90
9949;DHT22;5013;51.840;8.276;2023-11-21T09:20:12;8.30;99.90
9949;DHT22;5013;51.840;8.276;2023-11-21T09:22:37;8.20;99.90
9949;DHT22;5013;51.840;8.276;2023-11-21T09:25:03;8.30;99.90
9949;DHT22;5013;51.840;8.276;2023-11-21T09:27:31;8.30;99.90
9949;DHT22;5013;51.840;8.276;2023-11-21T09:29:56;8.30;99.90
9949;DHT22;5013;51.840;8.276;2023-11-21T09:32:23;8.30;99.90
9949;DHT22;5013;51.840;8.276;2023-11-21T09:34:50;8.40;99.90
9949;DHT22;5013;51.840;8.276;2023-11-21T09:37:16;8.40;99.90
9949;DHT22;5013;51.840;8.276;2023-11-21T09:39:41;8.30;99.90
9949;DHT22;5013;51.840;8.276;2023-11-21T09:42:39;8.30;99.90
9949;DHT22;5013;51.840;8.276;2023-11-21T09:45:25;8.40;99.90
9949;DHT22;5013;51.840;8.276;2023-11-21T09:47:52;8.30;99.90
9949;DHT22;5013;51.840;8.276;2023-11-21T09:50:20;8.30;99.90
9949;DHT22;5013;51.840;8.276;2023-11-21T09:53:17;8.40;99.90
9949;DHT22;5013;51.840;8.276;2023-11-21T09:55:44;8.40;99.90
9949;DHT22;5013;51.840;8.276;2023-11-21T09:58:11;8.40;99.90
9949;DHT22;5013;51.840;8.276;2023-11-21T10:00:45;8.40;99.90
9949;DHT22;5013;51.840;8.276;2023-11-21T10:03:12;8.40;99.90
9949;DHT22;5013;51.840;8.276;2023-11-21T10:05:39;8.40;99.90
9949;DHT22;5013;51.840;8.276;2023-11-21T10:08:07;8.40;99.90
9949;DHT22;5013;51.840;8.276;2023-11-21T10:10:35;8.40;99.90
9949;DHT22;5013;51.840;8.276;2023-11-21T10:13:03;8.40;99.90
9949;DHT22;5013;51.840;8.276;2023-11-21T10:15:33;8.40;99.90
9949;DHT22;5013;51.840;8.276;2023-11-21T10:18:05;8.40;99.90
9949;DHT22;5013;51.840;8.276;2023-11-21T10:20:32;8.40;99.90
9949;DHT22;5013;51.840;8.276;2023-11-21T10:23:03;8.40;99.90
9949;DHT22;5013;51.840;8.276;2023-11-21T10:25:30;8.50;99.90
9949;DHT22;5013;51.840;8.276;2023-11-21T10:28:00;8.50;99.90
9949;DHT22;5013;51.840;8.276;2023-11-21T10:30:37;8.60;99.90
9949;DHT22;5013;51.840;8.276;2023-11-21T10:33:04;8.60;99.90
9949;DHT22;5013;51.840;8.276;2023-11-21T10:35:45;8.60;99.90
9949;DHT22;5013;51.840;8.276;2023-11-21T10:38:12;8.70;99.90
9949;DHT22;5013;51.840;8.276;2023-11-21T10:40:42;8.70;99.90
9949;DHT22;5013;51.840;8.276;2023-11-21T10:43:10;8.70;99.90
9949;DHT22;5013;51.840;8.276;2023-11-21T10:45:39;8.70;99.90
9949;DHT22;5013;51.840;8.276;2023-11-21T10:48:06;8.70;99.90
9949;DHT22;5013;51.840;8.276;2023-11-21T10:50:36;8.80;99.90
9949;DHT22;5013;51.840;8.276;2023-11-21T10:53:03;8.90;99.90
9949;DHT22;5013;51.840;8.276;2023-11-21T10:55:29;8.90;99.90
9949;DHT22;5013;51.840;8.276;2023-11-21T10:57:58;9.00;99.90
9949;DHT22;5013;51.840;8.276;2023-11-21T11:00:26;9.00;99.90
9949;DHT22;5013;51.840;8.276;2023-11-21T11:02:53;9.00;99.90
9949;DHT22;5013;51.840;8.276;2023-11-21T11:05:29;9.00;99.90
9949;DHT22;5013;51.840;8.276;2023-11-21T11:08:06;9.00;99.90
9949;DHT22;5013;51.840;8.276;2023-11-21T11:10:33;9.00;99.90
9949;DHT22;5013;51.840;8.276;2023-11-21T11:12:59;8.90;99.90
9949;DHT22;5013;51.840;8.276;2023-11-21T11:15:26;9.00;99.90
9949;DHT22;5013;51.840;8.276;2023-11-21T11:17:52;9.00;99.90
9949;DHT22;5013;51.840;8.276;2023-11-21T11:20:23;9.00;99.90
9949;DHT22;5013;51.840;8.276;2023-11-21T11:28:07;9.10;99.90
9949;DHT22;5013;51.840;8.276;2023-11-21T11:33:42;9.20;99.90
9949;DHT22;5013;51.840;8.276;2023-11-21T11:36:17;9.10;99.90
9949;DHT22;5013;51.840;8.276;2023-11-21T11:38:46;9.10;99.90
9949;DHT22;5013;51.840;8.276;2023-11-21T11:41:11;9.10;99.90
9949;DHT22;5013;51.840;8.276;2023-11-21T11:43:37;9.00;99.90
9949;DHT22;5013;51.840;8.276;2023-11-21T11:46:10;9.00;99.90
9949;DHT22;5013;51.840;8.276;2023-11-21T11:48:39;9.10;99.90
9949;DHT22;5013;51.840;8.276;2023-11-21T11:51:10;9.00;99.90
9949;DHT22;5013;51.840;8.276;2023-11-21T11:53:39;9.10;99.90
9949;DHT22;5013;51.840;8.276;2023-11-21T11:56:24;9.10;99.90
9949;DHT22;5013;51.840;8.276;2023-11-21T11:58:55;9.10;99.90
9949;DHT22;5013;51.840;8.276;2023-11-21T12:01:21;9.10;99.90
9949;DHT22;5013;51.840;8.276;2023-11-21T12:06:43;9.10;99.90
9949;DHT22;5013;51.840;8.276;2023-11-21T12:09:18;9.20;99.90
9949;DHT22;5013;51.840;8.276;2023-11-21T12:11:45;9.20;99.90
9949;DHT22;5013;51.840;8.276;2023-11-21T12:14:12;9.10;99.90
9949;DHT22;5013;51.840;8.276;2023-11-21T12:16:39;9.10;99.90
9949;DHT22;5013;51.840;8.276;2023-11-21T12:19:05;8.90;99.90
9949;DHT22;5013;51.840;8.276;2023-11-21T12:21:30;8.90;99.90
9949;DHT22;5013;51.840;8.276;2023-11-21T12:23:58;8.80;99.90
9949;DHT22;5013;51.840;8.276;2023-11-21T12:26:24;8.70;99.90
9949;DHT22;5013;51.840;8.276;2023-11-21T12:28:53;8.70;99.90
9949;DHT22;5013;51.840;8.276;2023-11-21T12:31:24;8.70;99.90
9949;DHT22;5013;51.840;8.276;2023-11-21T12:33:50;8.70;99.90
9949;DHT22;5013;51.840;8.276;2023-11-21T12:36:16;8.70;99.90
9949;DHT22;5013;51.840;8.276;2023-11-21T12:38:42;8.70;99.90
9949;DHT22;5013;51.840;8.276;2023-11-21T12:41:11;8.70;99.90
9949;DHT22;5013;51.840;8.276;2023-11-21T12:43:37;8.60;99.90
9949;DHT22;5013;51.840;8.276;2023-11-21T12:46:11;8.60;99.90
9949;DHT22;5013;51.840;8.276;2023-11-21T12:48:42;8.50;99.90
9949;DHT22;5013;51.840;8.276;2023-11-21T12:51:09;8.50;99.90
9949;DHT22;5013;51.840;8.276;2023-11-21T12:53:37;8.40;99.90
9949;DHT22;5013;51.840;8.276;2023-11-21T12:56:07;8.40;99.90
9949;DHT22;5013;51.840;8.276;2023-11-21T12:58:35;8.40;99.90
9949;DHT22;5013;51.840;8.276;2023-11-21T13:01:01;8.30;99.90
9949;DHT22;5013;51.840;8.276;2023-11-21T13:03:29;8.30;99.90
9949;DHT22;5013;51.840;8.276;2023-11-21T13:05:55;8.20;99.90
9949;DHT22;5013;51.840;8.276;2023-11-21T13:08:23;8.20;99.90
9949;DHT22;5013;51.840;8.276;2023-11-21T13:10:56;8.20;99.90
9949;DHT22;5013;51.840;8.276;2023-11-21T13:13:23;8.20;99.90
9949;DHT22;5013;51.840;8.276;2023-11-21T13:15:54;8.20;99.90
9949;DHT22;5013;51.840;8.276;2023-11-21T13:18:26;8.20;99.90
9949;DHT22;5013;51.840;8.276;2023-11-21T13:20:56;8.30;99.90
9949;DHT22;5013;51.840;8.276;2023-11-21T13:23:23;8.30;99.90
9949;DHT22;5013;51.840;8.276;2023-11-21T13:25:49;8.30;99.90
9949;DHT22;5013;51.840;8.276;2023-11-21T13:28:15;8.30;99.90
9949;DHT22;5013;51.840;8.276;2023-11-21T13:30:41;8.30;99.90
9949;DHT22;5013;51.840;8.276;2023-11-21T13:33:07;8.40;99.90
9949;DHT22;5013;51.840;8.276;2023-11-21T13:35:38;8.40;96.80
9949;DHT22;5013;51.840;8.276;2023-11-21T13:38:09;8.40;36.60
9949;DHT22;5013;51.840;8.276;2023-11-21T13:40:36;8.30;1.00
9949;DHT22;5013;51.840;8.276;2023-11-21T13:43:09;8.30;1.00
9949;DHT22;5013;51.840;8.276;2023-11-21T13:45:39;8.30;1.00
9949;DHT22;5013;51.840;8.276;2023-11-21T13:48:06;8.30;1.00
9949;DHT22;5013;51.840;8.276;2023-11-21T13:50:45;8.30;1.00
9949;DHT22;5013;51.840;8.276;2023-11-21T13:53:21;8.20;1.00
9949;DHT22;5013;51.840;8.276;2023-11-21T13:55:53;8.20;1.00
9949;DHT22;5013;51.840;8.276;2023-11-21T13:58:26;8.10;1.00
9949;DHT22;5013;51.840;8.276;2023-11-21T14:01:12;8.10;1.00
9949;DHT22;5013;51.840;8.276;2023-11-21T14:04:02;8.10;1.00
9949;DHT22;5013;51.840;8.276;2023-11-21T14:06:46;8.10;1.00
9949;DHT22;5013;51.840;8.276;2023-11-21T14:09:16;8.10;1.00
9949;DHT22;5013;51.840;8.276;2023-11-21T14:11:53;8.10;1.00
9949;DHT22;5013;51.840;8.276;2023-11-21T14:14:21;8.10;1.00
9949;DHT22;5013;51.840;8.276;2023-11-21T14:16:47;8.00;1.00
9949;DHT22;5013;51.840;8.276;2023-11-21T14:19:13;8.00;1.00
9949;DHT22;5013;51.840;8.276;2023-11-21T14:21:51;8.00;1.00
9949;DHT22;5013;51.840;8.276;2023-11-21T14:24:18;8.00;1.00
9949;DHT22;5013;51.840;8.276;2023-11-21T14:26:45;7.90;1.00
9949;DHT22;5013;51.840;8.276;2023-11-21T14:29:12;8.00;1.00
9949;DHT22;5013;51.840;8.276;2023-11-21T14:31:40;8.00;1.00
9949;DHT22;5013;51.840;8.276;2023-11-21T14:34:07;7.90;1.00
9949;DHT22;5013;51.840;8.276;2023-11-21T14:36:36;7.90;1.00
9949;DHT22;5013;51.840;8.276;2023-11-21T14:39:03;7.90;1.00
9949;DHT22;5013;51.840;8.276;2023-11-21T14:41:32;7.90;1.00
9949;DHT22;5013;51.840;8.276;2023-11-21T14:44:00;7.80;1.00
9949;DHT22;5013;51.840;8.276;2023-11-21T14:46:28;7.90;99.90
9949;DHT22;5013;51.840;8.276;2023-11-21T14:48:53;7.90;99.90
9949;DHT22;5013;51.840;8.276;2023-11-21T14:51:28;7.80;99.90
9949;DHT22;5013;51.840;8.276;2023-11-21T14:53:57;7.80;99.90
9949;DHT22;5013;51.840;8.276;2023-11-21T14:56:31;7.80;99.90
9949;DHT22;5013;51.840;8.276;2023-11-21T14:59:00;7.80;99.90
9949;DHT22;5013;51.840;8.276;2023-11-21T15:01:32;7.80;99.90
9949;DHT22;5013;51.840;8.276;2023-11-21T15:04:19;7.80;96.40
9949;DHT22;5013;51.840;8.276;2023-11-21T15:07:05;7.80;63.50
9949;DHT22;5013;51.840;8.276;2023-11-21T15:09:31;7.70;1.00
9949;DHT22;5013;51.840;8.276;2023-11-21T15:11:57;7.70;1.00
9949;DHT22;5013;51.840;8.276;2023-11-21T15:14:29;7.80;99.90
9949;DHT22;5013;51.840;8.276;2023-11-21T15:16:57;7.80;62.40
9949;DHT22;5013;51.840;8.276;2023-11-21T15:19:25;7.70;1.00
9949;DHT22;5013;51.840;8.276;2023-11-21T15:21:51;7.70;1.00
9949;DHT22;5013;51.840;8.276;2023-11-21T15:24:17;7.70;1.00
9949;DHT22;5013;51.840;8.276;2023-11-21T15:26:43;7.70;32.80
9949;DHT22;5013;51.840;8.276;2023-11-21T15:29:08;7.70;1.00
9949;DHT22;5013;51.840;8.276;2023-11-21T15:31:34;7.70;1.00
9949;DHT22;5013;51.840;8.276;2023-11-21T15:34:01;7.70;1.00
9949;DHT22;5013;51.840;8.276;2023-11-21T15:36:27;7.60;99.90
9949;DHT22;5013;51.840;8.276;2023-11-21T15:38:53;7.60;1.00
9949;DHT22;5013;51.840;8.276;2023-11-21T15:41:19;7.60;1.00
9949;DHT22;5013;51.840;8.276;2023-11-21T15:43:45;7.60;1.00
9949;DHT22;5013;51.840;8.276;2023-11-21T15:46:13;7.50;99.90
9949;DHT22;5013;51.840;8.276;2023-11-21T15:48:38;7.50;1.00
9949;DHT22;5013;51.840;8.276;2023-11-21T15:51:09;7.50;99.90
9949;DHT22;5013;51.840;8.276;2023-11-21T15:53:37;7.50;99.90
9949;DHT22;5013;51.840;8.276;2023-11-21T15:56:07;7.50;99.90
9949;DHT22;5013;51.840;8.276;2023-11-21T15:58:40;7.40;99.90
9949;DHT22;5013;51.840;8.276;2023-11-21T16:01:09;7.40;99.90
9949;DHT22;5013;51.840;8.276;2023-11-21T16:03:36;7.40;99.90
9949;DHT22;5013;51.840;8.276;2023-11-21T16:06:02;7.40;99.90
9949;DHT22;5013;51.840;8.276;2023-11-21T16:08:28;7.40;1.00
9949;DHT22;5013;51.840;8.276;2023-11-21T16:10:54;7.40;1.00
9949;DHT22;5013;51.840;8.276;2023-11-21T16:13:20;7.40;1.00
9949;DHT22;5013;51.840;8.276;2023-11-21T16:15:46;7.40;1.00
9949;DHT22;5013;51.840;8.276;2023-11-21T16:18:12;7.40;3.80
9949;DHT22;5013;51.840;8.276;2023-11-21T16:20:37;7.40;1.00
9949;DHT22;5013;51.840;8.276;2023-11-21T16:23:03;7.30;1.00
9949;DHT22;5013;51.840;8.276;2023-11-21T16:25:29;7.30;93.80
9949;DHT22;5013;51.840;8.276;2023-11-21T16:27:54;7.30;99.90
9949;DHT22;5013;51.840;8.276;2023-11-21T16:30:21;7.30;99.90
9949;DHT22;5013;51.840;8.276;2023-11-21T16:32:49;7.30;99.90